Time;durP1;ratioP1;P1;durP2;ratioP2;P2;SDS_P1;SDS_P2;PMS_P1;PMS_P2;Temp;Humidity;BMP_temperature;BMP_pressure;BME280_temperature;BME280_humidity;BME280_pressure;Samples;Min_cycle;Max_cycle;Signal;HPM_P1;HPM_P2
2022/04/05 00:01:26;;;;;;;6.50;2.10;;;7.80;99.90;;;;;;4974129;28;20041;-62
2022/04/05 00:03:51;;;;;;;6.15;2.55;;;7.80;99.90;;;;;;4973939;28;20131;-62
2022/04/05 00:06:17;;;;;;;7.35;2.13;;;7.80;99.90;;;;;;4971421;28;20557;-62
2022/04/05 00:08:42;;;;;;;6.68;2.33;;;7.80;99.90;;;;;;4972612;28;20404;-62
2022/04/05 00:11:08;;;;;;;4.68;1.70;;;7.70;99.90;;;;;;4974046;28;20035;-63
2022/04/05 00:13:33;;;;;;;4.25;1.88;;;7.80;99.90;;;;;;4972975;28;20038;-63
2022/04/05 00:15:59;;;;;;;5.97;1.88;;;7.80;99.90;;;;;;4978536;28;20039;-63
2022/04/05 00:18:25;;;;;;;6.13;2.10;;;7.70;99.90;;;;;;4973844;28;20035;-63
2022/04/05 00:20:51;;;;;;;3.20;1.80;;;7.70;99.90;;;;;;4973863;28;20035;-63
2022/04/05 00:23:16;;;;;;;4.10;1.90;;;7.70;99.90;;;;;;4969929;28;20528;-63
2022/04/05 00:25:42;;;;;;;7.22;2.00;;;7.70;99.90;;;;;;4974574;28;20070;-63
2022/04/05 00:28:08;;;;;;;3.38;1.60;;;7.70;99.90;;;;;;4974094;28;20045;-63
2022/04/05 00:30:33;;;;;;;5.10;2.30;;;7.70;99.90;;;;;;4973421;28;20038;-63
2022/04/05 00:32:59;;;;;;;4.82;1.83;;;7.70;99.90;;;;;;4977050;28;20097;-63
2022/04/05 00:35:25;;;;;;;4.90;1.88;;;7.70;99.90;;;;;;4973326;28;20042;-64
2022/04/05 00:37:50;;;;;;;6.65;1.83;;;7.70;99.90;;;;;;4973569;28;20043;-63
2022/04/05 00:40:16;;;;;;;1.85;1.40;;;7.60;99.90;;;;;;4977619;28;20038;-63
2022/04/05 00:42:42;;;;;;;2.85;1.63;;;7.60;99.90;;;;;;4975489;28;20034;-64
2022/04/05 00:45:09;;;;;;;5.55;1.60;;;7.60;99.90;;;;;;4973629;28;20070;-64
2022/04/05 00:47:35;;;;;;;2.70;1.73;;;7.60;99.90;;;;;;4974743;28;20072;-63
2022/04/05 00:50:03;;;;;;;3.33;1.52;;;7.60;99.90;;;;;;4978894;28;20096;-63
2022/04/05 00:52:28;;;;;;;3.25;1.60;;;7.60;99.90;;;;;;4972821;28;20039;-63
2022/04/05 00:54:56;;;;;;;5.10;1.98;;;7.60;99.90;;;;;;4971256;28;20042;-64
2022/04/05 00:57:23;;;;;;;7.43;2.03;;;7.50;99.90;;;;;;4979545;28;20579;-63
2022/04/05 00:59:53;;;;;;;3.78;1.90;;;7.60;99.90;;;;;;4973000;28;20551;-64
2022/04/05 01:02:20;;;;;;;2.78;1.60;;;7.50;99.90;;;;;;4973342;28;20097;-63
2022/04/05 01:04:47;;;;;;;4.68;1.92;;;7.50;99.90;;;;;;4970440;28;20042;-63
2022/04/05 01:07:16;;;;;;;3.42;1.60;;;7.50;99.90;;;;;;4978550;28;20049;-64
2022/04/05 01:09:42;;;;;;;6.15;1.67;;;7.50;99.90;;;;;;4972720;28;20038;-64
2022/04/05 01:12:09;;;;;;;4.03;1.95;;;7.50;99.90;;;;;;4970824;28;20049;-63
2022/04/05 01:14:35;;;;;;;4.35;1.70;;;7.50;99.90;;;;;;4972130;28;20397;-64
2022/04/05 01:17:03;;;;;;;5.80;1.90;;;7.50;99.90;;;;;;4972796;28;20081;-63
2022/04/05 01:19:30;;;;;;;5.80;2.42;;;7.50;99.90;;;;;;4972658;28;20177;-64
2022/04/05 01:21:55;;;;;;;4.78;2.00;;;7.50;99.90;;;;;;4976744;28;20050;-64
2022/04/05 01:24:21;;;;;;;4.80;2.10;;;7.50;99.90;;;;;;4972218;28;20026;-63
2022/04/05 01:26:49;;;;;;;4.60;2.00;;;7.50;99.90;;;;;;4972759;28;20389;-64
2022/04/05 01:29:16;;;;;;;7.05;2.35;;;7.50;99.90;;;;;;4972481;28;20516;-64
2022/04/05 01:31:47;;;;;;;4.88;2.33;;;7.50;99.90;;;;;;4978102;28;20035;-64
2022/04/05 01:34:14;;;;;;;9.38;2.50;;;7.50;99.90;;;;;;4972621;28;20116;-64
2022/04/05 01:36:45;;;;;;;9.00;2.42;;;7.50;99.90;;;;;;4972876;28;20046;-64
2022/04/05 01:39:12;;;;;;;5.22;2.38;;;7.50;99.90;;;;;;4972182;28;20117;-64
2022/04/05 01:41:37;;;;;;;6.65;2.55;;;7.50;99.90;;;;;;4972094;28;20031;-64
2022/04/05 01:44:05;;;;;;;6.07;2.30;;;7.50;99.90;;;;;;4972476;28;20046;-64
2022/04/05 01:46:32;;;;;;;8.32;2.65;;;7.40;99.90;;;;;;4970540;28;20574;-63
2022/04/05 01:48:57;;;;;;;6.78;2.65;;;7.40;99.90;;;;;;4978323;28;20568;-64
2022/04/05 01:53:57;;;;;;;4.60;1.95;;;7.40;99.90;;;;;;4951157;29;20402;-63
2022/04/05 01:56:24;;;;;;;6.90;2.30;;;7.40;99.90;;;;;;4933039;28;20039;-64
2022/04/05 02:01:45;;;;;;;6.88;2.35;;;7.40;99.90;;;;;;5795861;23;20537;-61
2022/04/05 02:04:11;;;;;;;5.47;2.25;;;7.40;99.90;;;;;;4929302;29;20043;-61
2022/04/05 02:06:38;;;;;;;4.13;1.80;;;7.40;99.90;;;;;;4929076;29;20046;-61
2022/04/05 02:09:04;;;;;;;6.63;2.00;;;7.40;99.90;;;;;;4933727;29;20047;-61
2022/04/05 02:11:30;;;;;;;5.53;2.17;;;7.30;99.90;;;;;;4929317;29;20050;-61
2022/04/05 02:13:55;;;;;;;5.80;1.90;;;7.30;99.90;;;;;;4932996;29;20646;-61
2022/04/05 02:16:21;;;;;;;5.55;2.40;;;7.30;99.90;;;;;;4933534;29;20079;-62
2022/04/05 02:18:47;;;;;;;8.00;2.22;;;7.30;99.90;;;;;;4926678;29;20099;-61
2022/04/05 02:21:12;;;;;;;6.07;1.70;;;7.30;99.90;;;;;;4925306;29;20042;-61
2022/04/05 02:23:38;;;;;;;5.93;1.88;;;7.30;99.90;;;;;;4932664;29;20394;-62
2022/04/05 02:26:04;;;;;;;3.30;1.65;;;7.30;99.90;;;;;;4933325;29;20454;-62
2022/04/05 02:28:29;;;;;;;5.95;1.80;;;7.30;99.90;;;;;;4934902;29;20039;-61
2022/04/05 02:30:55;;;;;;;3.22;1.50;;;7.30;99.90;;;;;;4904013;29;20043;-61
2022/04/05 02:33:21;;;;;;;4.45;1.60;;;7.30;99.90;;;;;;4932910;29;20048;-61
2022/04/05 02:35:48;;;;;;;2.63;1.40;;;7.30;99.90;;;;;;4921708;29;20462;-62
2022/04/05 02:38:14;;;;;;;2.90;1.70;;;7.20;99.90;;;;;;4933005;29;20036;-63
2022/04/05 02:40:39;;;;;;;3.95;1.90;;;7.20;99.90;;;;;;4932795;29;20663;-64
2022/04/05 02:43:05;;;;;;;4.45;1.80;;;7.20;99.90;;;;;;4933208;29;20043;-63
2022/04/05 02:45:31;;;;;;;4.05;1.70;;;7.20;99.90;;;;;;4913117;29;20047;-63
2022/04/05 02:47:56;;;;;;;5.22;1.90;;;7.20;99.90;;;;;;4932906;29;20036;-64
2022/04/05 02:50:22;;;;;;;4.38;1.73;;;7.20;99.90;;;;;;4933465;29;20036;-63
2022/04/05 02:52:49;;;;;;;3.88;1.90;;;7.20;99.90;;;;;;4921822;29;20139;-63
2022/04/05 02:55:15;;;;;;;6.20;1.90;;;7.20;99.90;;;;;;4926730;29;20635;-64
2022/04/05 02:57:43;;;;;;;4.32;2.00;;;7.20;99.90;;;;;;4929209;29;20052;-64
2022/04/05 03:00:11;;;;;;;5.10;1.80;;;7.20;99.90;;;;;;4930447;29;20106;-64
2022/04/05 03:02:38;;;;;;;8.38;2.13;;;7.20;99.90;;;;;;4907155;29;20052;-63
2022/04/05 03:05:06;;;;;;;5.45;2.03;;;7.20;99.90;;;;;;4931525;29;20044;-63
2022/04/05 03:07:35;;;;;;;4.95;2.08;;;7.20;99.90;;;;;;4897002;29;20056;-63
2022/04/05 03:10:06;;;;;;;6.70;2.40;;;7.20;99.90;;;;;;4924592;29;20155;-63
2022/04/05 03:15:26;;;;;;;8.13;2.00;;;7.20;99.90;;;;;;5389071;23;20175;-62
2022/04/05 03:17:55;;;;;;;4.13;2.05;;;7.20;99.90;;;;;;5094919;23;20019;-61
2022/04/05 03:20:21;;;;;;;5.68;2.08;;;7.20;99.90;;;;;;4951325;28;20417;-62
2022/04/05 03:22:46;;;;;;;3.90;1.95;;;7.20;99.90;;;;;;4948525;29;20047;-62
2022/04/05 03:25:12;;;;;;;4.90;2.20;;;7.20;99.90;;;;;;4951173;28;20181;-62
2022/04/05 03:27:40;;;;;;;8.05;2.65;;;7.20;99.90;;;;;;4954331;28;20086;-62
2022/04/05 03:30:08;;;;;;;9.82;2.78;;;7.20;99.90;;;;;;4951488;29;20053;-62
2022/04/05 03:32:33;;;;;;;4.38;2.63;;;7.20;99.90;;;;;;4951608;29;20046;-62
2022/04/05 03:37:35;;;;;;;7.32;2.97;;;7.30;99.90;;;;;;5035973;23;20066;-63
2022/04/05 03:40:01;;;;;;;7.32;2.60;;;7.30;99.90;;;;;;4955374;28;20042;-63
2022/04/05 03:42:27;;;;;;;8.50;2.50;;;7.30;99.90;;;;;;4971596;28;20425;-63
2022/04/05 03:44:52;;;;;;;7.68;2.55;;;7.30;99.90;;;;;;4974141;28;20128;-63
2022/04/05 03:50:05;;;;;;;7.43;2.80;;;7.30;99.90;;;;;;5585421;23;20055;-62
2022/04/05 03:52:31;;;;;;;9.13;2.55;;;7.30;99.90;;;;;;4927616;29;20051;-64
2022/04/05 03:54:56;;;;;;;7.55;3.15;;;7.30;99.90;;;;;;4921620;29;20039;-65
2022/04/05 03:57:22;;;;;;;6.90;2.70;;;7.30;99.90;;;;;;4950323;29;20043;-65
2022/04/05 03:59:47;;;;;;;7.10;2.92;;;7.30;99.90;;;;;;4935316;29;20040;-65
2022/04/05 04:02:13;;;;;;;5.40;2.90;;;7.30;99.90;;;;;;4945254;28;20461;-65
2022/04/05 04:04:38;;;;;;;6.93;3.22;;;7.30;99.90;;;;;;4973909;23;20034;-64
2022/04/05 04:07:04;;;;;;;10.38;3.33;;;7.30;99.90;;;;;;4974569;28;20135;-64
2022/04/05 04:09:30;;;;;;;5.75;3.10;;;7.30;99.90;;;;;;4967314;28;20129;-64
2022/04/05 04:11:56;;;;;;;7.13;3.47;;;7.30;99.90;;;;;;4973264;28;20073;-64
2022/04/05 04:14:21;;;;;;;8.60;3.72;;;7.30;99.90;;;;;;4973398;28;20481;-64
2022/04/05 04:16:47;;;;;;;8.57;3.80;;;7.30;99.90;;;;;;4960916;28;20040;-64
2022/04/05 04:19:12;;;;;;;11.60;3.80;;;7.40;99.90;;;;;;4968799;28;20039;-64
2022/04/05 04:21:38;;;;;;;8.23;3.47;;;7.40;99.90;;;;;;4954579;28;20054;-64
2022/04/05 04:24:04;;;;;;;9.70;3.45;;;7.40;99.90;;;;;;4953030;28;20069;-64
2022/04/05 04:26:29;;;;;;;7.95;3.35;;;7.40;99.90;;;;;;4970155;28;20042;-64
2022/04/05 04:28:58;;;;;;;8.40;3.50;;;7.40;99.90;;;;;;4962450;28;20059;-64
2022/04/05 04:31:24;;;;;;;8.45;3.63;;;7.40;99.90;;;;;;4953114;28;20130;-64
2022/04/05 04:33:50;;;;;;;9.02;3.97;;;7.30;99.90;;;;;;4962644;28;20158;-64
2022/04/05 04:36:15;;;;;;;10.02;3.85;;;7.40;99.90;;;;;;4960089;28;20053;-64
2022/04/05 04:38:41;;;;;;;11.38;4.00;;;7.30;99.90;;;;;;4954592;29;20043;-64
2022/04/05 04:41:07;;;;;;;8.65;4.03;;;7.30;99.90;;;;;;4958088;28;21069;-63
2022/04/05 04:43:33;;;;;;;10.38;4.15;;;7.30;99.90;;;;;;4947388;28;20042;-63
2022/04/05 04:45:58;;;;;;;15.82;4.10;;;7.30;99.90;;;;;;4954380;28;20054;-63
2022/04/05 04:48:24;;;;;;;10.95;4.28;;;7.20;99.90;;;;;;4952456;28;20043;-63
2022/04/05 04:50:50;;;;;;;11.77;4.18;;;7.30;99.90;;;;;;4967402;28;20039;-63
2022/04/05 04:53:16;;;;;;;12.77;4.35;;;7.30;99.90;;;;;;4948228;28;20130;-63
2022/04/05 04:55:42;;;;;;;10.05;4.15;;;7.20;99.90;;;;;;4966039;28;20332;-64
2022/04/05 04:58:08;;;;;;;10.48;4.32;;;7.20;99.90;;;;;;4964392;28;20540;-64
2022/04/05 05:00:33;;;;;;;9.10;4.07;;;7.20;99.90;;;;;;4955140;28;20039;-64
2022/04/05 05:02:59;;;;;;;7.78;4.00;;;7.20;99.90;;;;;;4967627;28;20027;-63
2022/04/05 05:05:25;;;;;;;12.43;4.88;;;7.20;99.90;;;;;;4960160;28;20481;-64
2022/04/05 05:07:52;;;;;;;8.50;4.25;;;7.20;99.90;;;;;;4967695;28;20114;-64
2022/04/05 05:10:20;;;;;;;10.02;4.18;;;7.20;99.90;;;;;;4955787;28;20039;-64
2022/04/05 05:12:45;;;;;;;12.65;4.45;;;7.20;99.90;;;;;;4949561;29;20086;-63
2022/04/05 05:15:15;;;;;;;12.55;4.63;;;7.20;99.90;;;;;;4962794;28;20077;-63
2022/04/05 05:17:41;;;;;;;10.10;4.40;;;7.20;99.90;;;;;;4943063;28;20066;-64
2022/04/05 05:20:07;;;;;;;11.32;4.68;;;7.20;99.90;;;;;;4950325;29;20055;-63
2022/04/05 05:22:33;;;;;;;12.68;4.50;;;7.20;99.90;;;;;;4948103;28;20050;-63
2022/04/05 05:24:58;;;;;;;12.80;4.32;;;7.20;99.90;;;;;;4947201;28;20043;-63
2022/04/05 05:27:24;;;;;;;13.40;4.78;;;7.20;99.90;;;;;;4949247;28;20074;-64
2022/04/05 05:29:50;;;;;;;10.20;4.38;;;7.20;99.90;;;;;;4950311;29;20039;-64
2022/04/05 05:32:15;;;;;;;13.88;4.55;;;7.20;99.90;;;;;;4948266;28;20502;-64
2022/04/05 05:34:41;;;;;;;11.13;4.93;;;7.20;99.90;;;;;;4962143;28;20486;-64
2022/04/05 05:37:08;;;;;;;13.65;4.68;;;7.20;99.90;;;;;;4949910;28;20134;-64
2022/04/05 05:39:35;;;;;;;11.77;4.65;;;7.30;99.90;;;;;;4955185;28;20038;-64
2022/04/05 05:42:00;;;;;;;16.10;5.18;;;7.30;99.90;;;;;;4962126;28;20470;-64
2022/04/05 05:44:26;;;;;;;13.57;5.00;;;7.30;99.90;;;;;;4949112;28;20067;-64
2022/04/05 05:46:51;;;;;;;10.77;4.80;;;7.30;99.90;;;;;;4932903;29;20524;-63
2022/04/05 05:49:17;;;;;;;9.43;4.60;;;7.40;99.90;;;;;;4958143;28;20047;-64
2022/04/05 05:51:43;;;;;;;14.43;4.70;;;7.40;99.90;;;;;;4939904;28;20043;-64
2022/04/05 05:54:08;;;;;;;12.52;4.88;;;7.40;99.90;;;;;;4948953;29;20073;-64
2022/04/05 05:56:34;;;;;;;15.13;5.38;;;7.50;99.90;;;;;;4958662;28;20051;-64
2022/04/05 05:59:00;;;;;;;11.35;4.50;;;7.50;99.90;;;;;;4957140;28;20436;-64
2022/04/05 06:01:26;;;;;;;15.32;4.75;;;7.50;99.90;;;;;;4955017;28;20054;-64
2022/04/05 06:03:51;;;;;;;9.60;4.15;;;7.50;99.90;;;;;;4960385;28;20558;-64
2022/04/05 06:06:17;;;;;;;9.10;4.13;;;7.60;99.90;;;;;;4969788;28;20034;-62
2022/04/05 06:08:43;;;;;;;10.50;4.25;;;7.60;99.90;;;;;;4965880;28;20445;-64
2022/04/05 06:11:10;;;;;;;9.82;4.20;;;7.60;99.90;;;;;;4958581;28;20567;-64
2022/04/05 06:13:36;;;;;;;12.50;4.38;;;7.60;99.90;;;;;;4965092;28;20108;-65
2022/04/05 06:16:03;;;;;;;8.48;3.85;;;7.70;99.90;;;;;;4960356;28;20043;-65
2022/04/05 06:18:28;;;;;;;6.53;3.70;;;7.70;99.90;;;;;;4952676;29;20457;-65
2022/04/05 06:20:54;;;;;;;7.72;3.67;;;7.70;99.90;;;;;;4951368;28;20043;-65
2022/04/05 06:23:19;;;;;;;10.68;3.90;;;7.70;99.90;;;;;;4961375;28;20031;-65
2022/04/05 06:25:45;;;;;;;13.10;3.83;;;7.70;99.90;;;;;;4963521;28;20106;-65
2022/04/05 06:28:11;;;;;;;8.85;3.80;;;7.70;99.90;;;;;;4968580;28;20038;-66
2022/04/05 06:30:38;;;;;;;10.00;3.03;;;7.70;99.90;;;;;;4969117;28;20038;-65
2022/04/05 06:33:12;;;;;;;8.18;3.65;;;7.80;99.90;;;;;;4957921;28;20031;-65
2022/04/05 06:35:43;;;;;;;7.43;3.28;;;7.80;99.90;;;;;;4950719;29;20043;-65
2022/04/05 06:38:10;;;;;;;8.73;3.30;;;7.80;99.90;;;;;;4956077;28;20034;-66
2022/04/05 06:40:36;;;;;;;7.93;3.22;;;7.80;99.90;;;;;;4969412;28;20066;-66
2022/04/05 06:43:02;;;;;;;7.55;3.15;;;7.80;99.90;;;;;;4950323;29;20082;-66
2022/04/05 06:45:28;;;;;;;7.70;3.22;;;7.90;99.90;;;;;;4949140;28;20039;-66
2022/04/05 06:47:54;;;;;;;7.95;3.00;;;7.90;99.90;;;;;;4958859;28;20091;-65
2022/04/05 06:50:24;;;;;;;9.43;2.97;;;8.00;99.90;;;;;;4940199;29;20043;-66
2022/04/05 06:52:51;;;;;;;6.75;2.58;;;8.00;99.90;;;;;;4952189;29;20053;-66
2022/04/05 06:55:16;;;;;;;5.20;2.42;;;8.10;99.90;;;;;;4961080;28;20078;-65
2022/04/05 06:57:42;;;;;;;6.00;2.30;;;8.10;99.90;;;;;;4969646;28;20080;-66
2022/04/05 07:00:10;;;;;;;5.22;2.33;;;8.20;99.90;;;;;;4952178;28;20031;-66
2022/04/05 07:02:37;;;;;;;8.02;3.00;;;8.20;99.90;;;;;;4955469;28;20075;-66
2022/04/05 07:05:04;;;;;;;7.18;2.30;;;8.20;99.90;;;;;;4965229;28;20067;-66
2022/04/05 07:07:30;;;;;;;8.70;2.60;;;8.20;99.90;;;;;;4952063;28;20074;-66
2022/04/05 07:09:55;;;;;;;6.25;2.33;;;8.30;99.90;;;;;;4953016;28;20042;-65
2022/04/05 07:12:23;;;;;;;7.25;2.33;;;8.30;99.90;;;;;;4970670;28;20601;-65
2022/04/05 07:14:48;;;;;;;3.72;1.88;;;8.20;99.90;;;;;;4953149;28;20062;-65
2022/04/05 07:17:14;;;;;;;5.63;2.22;;;8.20;99.90;;;;;;4952371;28;20122;-65
2022/04/05 07:19:40;;;;;;;4.25;1.80;;;8.30;99.90;;;;;;4958739;28;20194;-65
2022/04/05 07:22:05;;;;;;;3.50;1.73;;;8.20;99.90;;;;;;4967701;28;20689;-65
2022/04/05 07:24:31;;;;;;;3.90;1.92;;;8.20;99.90;;;;;;4955178;28;20052;-65
2022/04/05 07:26:57;;;;;;;5.95;1.75;;;8.30;99.90;;;;;;4956433;28;20039;-65
2022/04/05 07:29:23;;;;;;;5.30;1.70;;;8.30;99.90;;;;;;4948090;29;20552;-65
2022/04/05 07:31:48;;;;;;;5.25;1.77;;;8.30;99.90;;;;;;4963215;28;20077;-65
2022/04/05 07:34:14;;;;;;;4.47;1.50;;;8.40;99.90;;;;;;4970340;28;20062;-65
2022/04/05 07:36:39;;;;;;;3.55;1.70;;;8.40;99.90;;;;;;4960562;28;20065;-65
2022/04/05 07:39:05;;;;;;;3.10;1.50;;;8.30;99.90;;;;;;4969133;28;20034;-65
2022/04/05 07:41:31;;;;;;;3.35;1.70;;;8.40;99.90;;;;;;4963504;28;20405;-66
2022/04/05 07:43:56;;;;;;;4.15;1.58;;;8.40;99.90;;;;;;4945580;28;20121;-66
2022/04/05 07:46:22;;;;;;;3.90;1.50;;;8.40;99.90;;;;;;4955364;29;20040;-66
2022/04/05 07:48:47;;;;;;;1.98;1.30;;;8.40;99.90;;;;;;4955465;28;20182;-66
2022/04/05 07:51:14;;;;;;;3.33;1.35;;;8.50;99.90;;;;;;4952367;28;20042;-66
2022/04/05 07:53:40;;;;;;;3.22;1.45;;;8.50;99.90;;;;;;4963843;28;20035;-66
2022/04/05 07:56:06;;;;;;;4.20;1.42;;;8.60;99.90;;;;;;4961829;28;20043;-65
2022/04/05 07:58:32;;;;;;;4.20;1.60;;;8.60;99.90;;;;;;4955296;29;20118;-65
2022/04/05 08:00:57;;;;;;;2.47;1.30;;;8.60;99.90;;;;;;4966364;28;20105;-65
2022/04/05 08:03:23;;;;;;;3.85;1.50;;;8.70;99.90;;;;;;4968361;28;20062;-65
2022/04/05 08:05:49;;;;;;;3.15;1.40;;;8.80;99.90;;;;;;4954970;28;20530;-64
2022/04/05 08:08:15;;;;;;;4.10;1.50;;;8.80;99.90;;;;;;4936284;28;20043;-64
2022/04/05 08:10:41;;;;;;;1.48;1.10;;;8.80;99.90;;;;;;4960340;28;20043;-63
2022/04/05 08:13:07;;;;;;;4.93;1.50;;;8.80;99.90;;;;;;4961424;28;20055;-64
2022/04/05 08:15:32;;;;;;;3.40;1.48;;;8.80;99.90;;;;;;4939701;28;20038;-64
2022/04/05 08:17:58;;;;;;;3.17;1.50;;;8.80;99.90;;;;;;4970361;28;20097;-63
2022/04/05 08:20:24;;;;;;;3.08;1.40;;;8.80;99.90;;;;;;4966864;28;20097;-62
2022/04/05 08:22:50;;;;;;;2.38;1.63;;;8.80;99.90;;;;;;4973487;28;20034;-63
2022/04/05 08:25:18;;;;;;;1.60;1.40;;;8.80;99.90;;;;;;4956840;28;20046;-64
2022/04/05 08:27:46;;;;;;;1.92;1.30;;;8.70;99.90;;;;;;4963144;28;20059;-63
2022/04/05 08:30:15;;;;;;;3.63;1.90;;;8.70;99.90;;;;;;4958274;28;20039;-63
2022/04/05 08:32:42;;;;;;;4.05;1.70;;;8.70;99.90;;;;;;4944441;28;20045;-63
2022/04/05 08:35:10;;;;;;;3.30;1.50;;;8.70;99.90;;;;;;4965779;28;20058;-63
2022/04/05 08:37:35;;;;;;;2.97;1.67;;;8.80;99.90;;;;;;4968501;28;20043;-63
2022/04/05 08:40:06;;;;;;;1.63;1.40;;;8.80;99.90;;;;;;4971020;28;20051;-63
2022/04/05 08:42:33;;;;;;;1.65;1.42;;;8.90;99.90;;;;;;4964959;28;20035;-62
2022/04/05 08:45:00;;;;;;;1.30;1.20;;;8.90;99.90;;;;;;4971199;28;20049;-63
2022/04/05 08:47:27;;;;;;;2.25;1.50;;;8.90;99.90;;;;;;4967906;28;20042;-63
2022/04/05 08:49:54;;;;;;;2.50;1.80;;;8.90;99.90;;;;;;4963719;28;20390;-63
2022/04/05 08:52:20;;;;;;;2.25;1.60;;;9.00;99.90;;;;;;4963456;28;20085;-63
2022/04/05 08:54:45;;;;;;;2.25;1.75;;;9.10;99.90;;;;;;4965498;28;20481;-63
2022/04/05 08:57:11;;;;;;;1.50;1.40;;;9.20;99.90;;;;;;4961752;28;20043;-63
2022/04/05 08:59:36;;;;;;;2.03;1.50;;;9.30;99.90;;;;;;4961854;28;20497;-63
2022/04/05 09:02:02;;;;;;;1.75;1.48;;;9.30;99.90;;;;;;4965796;28;20378;-63
2022/04/05 09:04:34;;;;;;;2.20;1.50;;;9.20;99.90;;;;;;4960525;28;20027;-64
2022/04/05 09:07:21;;;;;;;2.40;1.80;;;9.40;99.90;;;;;;4964520;28;20135;-64
2022/04/05 09:10:08;;;;;;;2.13;1.40;;;9.30;99.90;;;;;;4960603;28;20043;-63
2022/04/05 09:12:49;;;;;;;1.75;1.30;;;9.30;99.90;;;;;;4964883;28;20093;-63
2022/04/05 09:15:20;;;;;;;2.08;1.50;;;9.40;99.90;;;;;;4946634;28;20051;-63
2022/04/05 09:17:48;;;;;;;1.90;1.70;;;9.40;99.90;;;;;;4954463;28;20070;-63
2022/04/05 09:20:16;;;;;;;3.08;1.65;;;9.50;99.90;;;;;;4955084;28;20809;-63
2022/04/05 09:22:42;;;;;;;2.83;1.80;;;9.50;99.90;;;;;;4964596;28;20034;-63
2022/04/05 09:25:10;;;;;;;2.10;1.60;;;9.50;99.90;;;;;;4951659;28;20032;-63
2022/04/05 09:27:42;;;;;;;2.88;1.55;;;9.60;99.90;;;;;;4949127;28;20042;-64
2022/04/05 09:30:18;;;;;;;2.13;1.60;;;9.60;99.90;;;;;;4955548;28;20038;-63
2022/04/05 09:32:48;;;;;;;3.90;1.92;;;9.60;99.90;;;;;;4955086;28;20043;-64
2022/04/05 09:35:15;;;;;;;2.67;1.95;;;9.70;99.90;;;;;;4953114;28;20038;-63
2022/04/05 09:37:41;;;;;;;2.03;1.70;;;9.70;99.90;;;;;;4970978;28;20101;-64
2022/04/05 09:40:23;;;;;;;2.33;1.80;;;9.70;99.90;;;;;;4952638;28;20564;-63
2022/04/05 09:43:04;;;;;;;2.97;2.10;;;9.70;99.90;;;;;;4955308;28;20074;-63
2022/04/05 09:45:58;;;;;;;3.72;2.10;;;9.50;99.90;;;;;;4967353;28;20081;-63
2022/04/05 09:48:33;;;;;;;3.05;2.20;;;9.50;99.90;;;;;;4952746;28;20027;-64
2022/04/05 09:51:10;;;;;;;4.78;2.97;;;9.40;99.90;;;;;;4967467;28;20078;-64
2022/04/05 09:53:39;;;;;;;4.15;2.97;;;9.30;99.90;;;;;;4955553;28;21713;-63
2022/04/05 09:56:12;;;;;;;4.53;3.03;;;9.30;99.90;;;;;;4952453;29;20472;-63
2022/04/05 09:59:03;;;;;;;4.95;3.22;;;9.30;99.90;;;;;;4957973;28;20035;-63
2022/04/05 10:01:31;;;;;;;4.60;3.10;;;9.40;99.90;;;;;;4963138;28;20124;-63
2022/04/05 10:04:04;;;;;;;7.20;3.90;;;9.50;99.90;;;;;;4977188;23;20062;-63
2022/04/05 10:06:31;;;;;;;5.72;4.15;;;9.50;99.90;;;;;;4953720;28;20046;-63
2022/04/05 10:08:58;;;;;;;5.60;3.75;;;9.60;99.90;;;;;;4949817;28;20485;-63
2022/04/05 10:11:29;;;;;;;8.32;4.13;;;9.70;99.90;;;;;;4951755;29;20660;-63
2022/04/05 10:13:56;;;;;;;6.45;4.05;;;9.60;99.90;;;;;;4952204;29;20028;-63
2022/04/05 10:16:26;;;;;;;7.68;4.30;;;9.60;99.90;;;;;;4949555;29;20043;-64
2022/04/05 10:19:04;;;;;;;8.45;4.63;;;9.70;99.90;;;;;;4918291;29;20060;-63
2022/04/05 10:21:34;;;;;;;6.63;4.57;;;9.70;99.90;;;;;;4922029;29;20047;-63
2022/04/05 10:24:01;;;;;;;8.60;5.30;;;9.80;99.90;;;;;;4931753;29;20039;-63
2022/04/05 10:26:29;;;;;;;8.50;5.22;;;9.90;99.90;;;;;;4930388;29;20042;-63
2022/04/05 10:28:57;;;;;;;8.90;5.55;;;9.90;99.90;;;;;;4932027;29;20506;-63
2022/04/05 10:31:32;;;;;;;9.35;6.25;;;10.00;99.90;;;;;;4927003;29;20567;-63
2022/04/05 10:34:27;;;;;;;9.82;6.38;;;10.10;99.90;;;;;;4927133;29;20043;-63
2022/04/05 10:37:18;;;;;;;8.95;6.03;;;10.20;99.90;;;;;;4929666;29;20063;-63
2022/04/05 10:39:58;;;;;;;9.38;5.80;;;10.20;99.90;;;;;;4928617;29;20095;-63
2022/04/05 10:42:34;;;;;;;10.00;6.45;;;10.30;99.90;;;;;;4932256;29;20557;-63
2022/04/05 10:45:13;;;;;;;11.82;6.75;;;10.30;99.90;;;;;;4933021;29;20043;-63
2022/04/05 10:48:16;;;;;;;11.45;6.60;;;10.50;99.90;;;;;;4929957;29;20050;-63
2022/04/05 10:50:43;;;;;;;11.20;7.22;;;10.60;99.90;;;;;;4928674;29;20047;-63
2022/04/05 10:53:21;;;;;;;9.88;6.45;;;10.70;99.90;;;;;;4916193;29;20054;-63
2022/04/05 10:56:07;;;;;;;9.40;6.57;;;10.80;99.90;;;;;;4930528;29;20058;-63
2022/04/05 10:58:38;;;;;;;12.07;6.90;;;11.00;99.90;;;;;;4927063;29;20044;-62
2022/04/05 11:01:13;;;;;;;9.52;6.85;;;11.10;99.90;;;;;;4932958;29;20521;-63
2022/04/05 11:03:39;;;;;;;7.75;5.38;;;11.10;99.90;;;;;;4929146;29;20066;-63
2022/04/05 11:06:05;;;;;;;9.45;5.65;;;11.10;99.90;;;;;;4933641;29;20032;-63
2022/04/05 11:08:31;;;;;;;9.90;6.13;;;11.20;99.90;;;;;;4934551;29;20082;-63
2022/04/05 11:11:02;;;;;;;7.25;5.05;;;11.30;99.90;;;;;;4932167;29;20110;-63
2022/04/05 11:13:33;;;;;;;6.63;5.28;;;11.30;99.90;;;;;;4932792;29;20135;-63
2022/04/05 11:15:59;;;;;;;;;;;11.50;99.90;;;;;;4936426;29;20043;-63
2022/04/05 11:18:29;;;;;;;7.95;5.20;;;11.60;99.90;;;;;;4936881;29;19929;-63
2022/04/05 11:20:57;;;;;;;7.85;4.93;;;11.80;99.90;;;;;;4934301;29;20237;-63
2022/04/05 11:23:42;;;;;;;6.75;4.20;;;11.70;99.90;;;;;;4935377;29;20036;-63
2022/04/05 11:26:33;;;;;;;6.78;5.13;;;11.60;99.90;;;;;;4929486;29;20043;-63
2022/04/05 11:28:59;;;;;;;8.60;5.25;;;11.60;99.90;;;;;;4927897;29;20047;-63
2022/04/05 11:31:34;;;;;;;7.43;4.65;;;11.60;99.90;;;;;;4935853;29;20147;-63
2022/04/05 11:34:02;;;;;;;7.53;4.95;;;11.70;99.90;;;;;;4935374;29;20047;-64
2022/04/05 11:36:28;;;;;;;6.93;4.95;;;11.80;99.90;;;;;;4934189;29;20059;-63
2022/04/05 11:38:58;;;;;;;6.35;4.53;;;11.80;99.90;;;;;;4935543;29;20050;-63
2022/04/05 11:41:28;;;;;;;7.50;4.50;;;12.00;99.90;;;;;;4930737;29;20036;-63
2022/04/05 11:44:00;;;;;;;7.28;4.97;;;12.10;99.90;;;;;;4935445;29;20048;-63
2022/04/05 11:46:30;;;;;;;;;;;12.30;99.90;;;;;;4933016;29;20525;-63
2022/04/05 11:49:02;;;;;;;6.38;4.60;;;12.30;99.90;;;;;;4928278;29;19923;-63
2022/04/05 11:51:36;;;;;;;8.07;4.90;;;12.20;99.90;;;;;;4936081;29;20082;-63
2022/04/05 11:54:07;;;;;;;8.90;5.57;;;12.10;99.90;;;;;;4933571;29;20097;-63
2022/04/05 11:56:34;;;;;;;;;;;11.90;99.90;;;;;;4932919;29;20039;-63
2022/04/05 11:59:00;;;;;;;8.63;5.30;;;11.90;99.90;;;;;;4934898;29;20052;-63
2022/04/05 12:01:28;;;;;;;8.73;5.13;;;11.80;99.90;;;;;;4935621;29;20043;-64
2022/04/05 12:03:59;;;;;;;11.73;5.90;;;11.90;99.90;;;;;;4922762;29;20063;-64
2022/04/05 12:06:31;;;;;;;10.98;5.10;;;12.00;99.90;;;;;;4935693;29;20035;-63
2022/04/05 12:08:59;;;;;;;7.13;4.72;;;12.10;99.90;;;;;;4935912;29;20079;-63
2022/04/05 12:11:26;;;;;;;8.88;4.53;;;12.10;99.90;;;;;;4932300;29;20534;-63
2022/04/05 12:13:57;;;;;;;6.93;4.72;;;11.90;99.90;;;;;;4933504;29;20044;-63
2022/04/05 12:16:25;;;;;;;7.97;4.70;;;11.80;99.90;;;;;;4933807;29;20032;-64
2022/04/05 12:18:52;;;;;;;9.40;4.63;;;11.80;99.90;;;;;;4931575;29;20040;-63
2022/04/05 12:21:20;;;;;;;7.63;5.28;;;11.80;99.90;;;;;;4930901;29;20035;-63
2022/04/05 12:23:48;;;;;;;9.00;5.03;;;11.80;99.90;;;;;;4924121;29;20467;-63
2022/04/05 12:26:21;;;;;;;10.55;5.07;;;11.90;99.90;;;;;;4934410;29;20454;-63
2022/04/05 12:28:54;;;;;;;6.80;4.70;;;12.10;99.90;;;;;;4934387;29;20043;-63
2022/04/05 12:31:28;;;;;;;8.02;4.57;;;12.10;99.90;;;;;;4933897;29;20681;-64
2022/04/05 12:34:00;;;;;;;8.45;4.70;;;12.10;99.90;;;;;;4934234;29;20051;-63
2022/04/05 12:36:32;;;;;;;9.38;5.07;;;12.10;99.90;;;;;;4931886;29;20039;-63
2022/04/05 12:38:58;;;;;;;7.93;5.55;;;12.30;99.90;;;;;;4934606;29;20260;-64
2022/04/05 12:41:24;;;;;;;7.35;4.60;;;12.40;99.90;;;;;;4934975;29;20406;-63
2022/04/05 12:44:09;;;;;;;6.07;4.30;;;12.20;99.90;;;;;;4931875;29;20449;-63
2022/04/05 12:46:39;;;;;;;8.43;4.38;;;12.00;99.90;;;;;;4934406;29;20102;-63
2022/04/05 12:49:30;;;;;;;7.18;4.43;;;11.90;99.90;;;;;;4934816;29;20040;-63
2022/04/05 12:52:23;;;;;;;7.85;4.20;;;11.80;99.90;;;;;;4929737;29;20139;-63
2022/04/05 12:54:50;;;;;;;9.90;5.88;;;11.70;99.90;;;;;;4933699;29;20518;-63
2022/04/05 12:57:20;;;;;;;9.25;5.50;;;11.60;99.90;;;;;;4933508;29;20052;-63
2022/04/05 12:59:49;;;;;;;9.90;5.32;;;11.60;99.90;;;;;;4931724;29;20051;-63
2022/04/05 13:02:23;;;;;;;8.68;4.85;;;11.50;99.90;;;;;;4934249;29;20063;-63
2022/04/05 13:04:49;;;;;;;8.30;4.82;;;11.50;99.90;;;;;;4933465;29;20047;-63
2022/04/05 13:07:15;;;;;;;8.85;5.70;;;11.50;99.90;;;;;;4934353;29;20039;-63
2022/04/05 13:09:41;;;;;;;9.85;5.82;;;11.50;99.90;;;;;;4926838;29;20053;-63
2022/04/05 13:12:12;;;;;;;12.55;6.82;;;11.50;99.90;;;;;;4934042;29;20042;-63
2022/04/05 13:14:38;;;;;;;13.10;8.40;;;11.50;99.90;;;;;;4932686;29;20126;-63